Time,TemperatureF,DewpointF,PressureIn,WindDirection,WindDirectionDegrees,WindSpeedMPH,WindSpeedGustMPH,Humidity,HourlyPrecipIn,Conditions,Clouds,dailyrainin,SoftwareType,DateUTC
2013-04-08 00:02:00,46.4,34.9,29.78,ENE,65,0.0,0.0,64,0.00,,CLR,0.02,VWS V14.01,2013-04-08 04:02:00,
2013-04-08 00:07:00,46.2,34.7,29.78,ENE,65,0.0,0.0,64,0.00,,CLR,0.00,VWS V14.01,2013-04-08 04:07:00,
2013-04-08 00:13:00,46.2,34.3,29.78,ENE,65,0.0,0.0,63,0.00,,CLR,0.00,VWS V14.01,2013-04-08 04:13:00,
2013-04-08 00:22:00,46.2,34.7,29.78,ENE,65,0.0,0.0,64,0.00,,CLR,0.00,VWS V14.01,2013-04-08 04:22:00,
2013-04-08 00:27:00,46.4,34.5,29.78,ENE,68,0.0,0.0,63,0.00,,CLR,0.00,VWS V14.01,2013-04-08 04:27:00,
2013-04-08 00:32:00,46.1,34.2,29.78,ENE,68,0.0,0.0,63,0.00,,CLR,0.00,VWS V14.01,2013-04-08 04:32:00,
2013-04-08 00:37:00,45.8,34.3,29.78,ENE,69,0.0,0.0,64,0.00,,CLR,0.00,VWS V14.01,2013-04-08 04:37:00,
2013-04-08 00:42:00,45.5,34.4,29.78,ENE,69,0.0,0.0,65,0.00,,CLR,0.00,VWS V14.01,2013-04-08 04:42:00,
2013-04-08 00:47:00,45.4,34.3,29.77,ENE,71,0.0,0.0,65,0.00,,CLR,0.00,VWS V14.01,2013-04-08 04:47:00,
2013-04-08 00:57:00,45.7,34.6,29.77,ENE,73,0.0,0.0,65,0.00,,CLR,0.00,VWS V14.01,2013-04-08 04:57:00,
2013-04-08 01:02:00,46.0,34.5,29.77,ENE,78,0.0,0.0,64,0.00,,CLR,0.00,VWS V14.01,2013-04-08 05:02:00,
2013-04-08 01:12:00,44.9,34.2,29.77,ENE,78,0.0,0.0,66,0.00,,CLR,0.00,VWS V14.01,2013-04-08 05:12:00,
2013-04-08 01:17:00,45.7,34.6,29.76,East,86,0.0,0.0,65,0.00,,CLR,0.00,VWS V14.01,2013-04-08 05:17:00,
2013-04-08 01:22:00,45.8,34.3,29.76,East,86,0.0,0.0,64,0.00,,CLR,0.00,VWS V14.01,2013-04-08 05:22:00,
2013-04-08 01:27:00,46.1,34.6,29.76,East,88,0.0,0.0,64,0.00,,CLR,0.00,VWS V14.01,2013-04-08 05:27:00,
2013-04-08 01:32:00,46.5,34.2,29.76,East,93,0.0,0.0,62,0.00,,CLR,0.00,VWS V14.01,2013-04-08 05:32:00,
2013-04-08 01:42:00,46.8,34.5,29.76,East,99,0.0,0.0,62,0.00,,CLR,0.00,VWS V14.01,2013-04-08 05:42:00,
2013-04-08 01:47:00,47.0,34.7,29.76,ESE,106,0.0,0.0,62,0.00,,CLR,0.00,VWS V14.01,2013-04-08 05:47:00,
2013-04-08 01:52:00,47.0,34.7,29.76,ESE,110,0.0,0.0,62,0.00,,CLR,0.00,VWS V14.01,2013-04-08 05:52:00,
2013-04-08 01:57:00,46.8,34.5,29.76,ESE,110,0.0,0.0,62,0.00,,CLR,0.00,VWS V14.01,2013-04-08 05:57:00,
2013-04-08 02:02:00,46.8,34.5,29.76,ESE,107,0.0,0.0,62,0.00,,CLR,0.00,VWS V14.01,2013-04-08 06:02:00,
2013-04-08 02:12:00,47.3,35.0,29.76,ESE,119,0.0,0.0,62,0.00,,CLR,0.00,VWS V14.01,2013-04-08 06:12:00,
2013-04-08 02:17:00,47.4,34.6,29.76,ESE,112,0.0,0.0,61,0.00,,CLR,0.00,VWS V14.01,2013-04-08 06:17:00,
2013-04-08 02:22:00,47.7,34.9,29.76,SE,130,0.0,0.0,61,0.00,,CLR,0.00,VWS V14.01,2013-04-08 06:22:00,
2013-04-08 02:32:00,47.7,34.5,29.76,SE,131,0.0,0.0,60,0.00,,CLR,0.00,VWS V14.01,2013-04-08 06:32:00,
2013-04-08 02:37:00,47.7,34.5,29.76,ESE,123,0.0,0.0,60,0.00,,CLR,0.00,VWS V14.01,2013-04-08 06:37:00,
2013-04-08 02:42:00,47.6,34.8,29.76,ESE,109,0.0,0.0,61,0.00,,CLR,0.00,VWS V14.01,2013-04-08 06:42:00,
2013-04-08 02:47:00,47.4,35.0,29.76,ESE,109,0.0,0.0,62,0.00,,CLR,0.00,VWS V14.01,2013-04-08 06:47:00,
2013-04-08 02:52:00,47.3,35.0,29.76,East,95,0.0,0.0,62,0.00,,CLR,0.00,VWS V14.01,2013-04-08 06:52:00,
2013-04-08 02:57:00,47.1,34.8,29.76,ESE,110,0.0,0.0,62,0.00,,CLR,0.00,VWS V14.01,2013-04-08 06:57:00,
2013-04-08 03:02:00,47.1,34.8,29.75,ESE,107,0.0,0.0,62,0.00,,CLR,0.00,VWS V14.01,2013-04-08 07:02:00,
2013-04-08 03:07:00,47.1,34.8,29.75,ESE,119,0.0,0.0,62,0.00,,CLR,0.00,VWS V14.01,2013-04-08 07:07:00,
2013-04-08 03:22:00,47.3,35.0,29.75,ESE,112,0.0,0.0,62,0.00,,CLR,0.00,VWS V14.01,2013-04-08 07:22:00,
2013-04-08 03:27:00,47.3,35.0,29.75,ESE,110,0.0,0.0,62,0.00,,CLR,0.00,VWS V14.01,2013-04-08 07:27:00,
2013-04-08 03:32:00,47.3,35.0,29.73,ESE,110,0.0,0.0,62,0.00,,CLR,0.00,VWS V14.01,2013-04-08 07:32:00,
2013-04-08 03:42:00,47.0,34.7,29.73,ESE,110,0.0,0.0,62,0.00,,CLR,0.00,VWS V14.01,2013-04-08 07:42:00,
2013-04-08 03:47:00,47.0,34.7,29.72,ESE,117,0.0,0.0,62,0.00,,CLR,0.00,VWS V14.01,2013-04-08 07:47:00,
2013-04-08 03:57:00,47.1,34.8,29.72,ESE,114,0.0,0.0,62,0.00,,CLR,0.00,VWS V14.01,2013-04-08 07:57:00,
2013-04-08 04:02:00,47.1,34.8,29.72,ESE,116,0.0,0.0,62,0.00,,CLR,0.00,VWS V14.01,2013-04-08 08:02:00,
2013-04-08 04:07:00,47.3,35.0,29.72,ESE,121,0.0,0.0,62,0.00,,CLR,0.00,VWS V14.01,2013-04-08 08:07:00,
2013-04-08 04:12:00,47.4,34.6,29.72,ESE,113,0.0,0.0,61,0.00,,CLR,0.00,VWS V14.01,2013-04-08 08:12:00,
2013-04-08 04:17:00,47.3,35.0,29.71,ESE,106,0.0,0.0,62,0.00,,CLR,0.00,VWS V14.01,2013-04-08 08:17:00,
2013-04-08 04:22:00,47.3,35.0,29.71,SE,124,0.0,0.0,62,0.00,,CLR,0.00,VWS V14.01,2013-04-08 08:22:00,
2013-04-08 04:27:00,47.3,35.0,29.71,ESE,102,0.0,0.0,62,0.00,,CLR,0.00,VWS V14.01,2013-04-08 08:27:00,
2013-04-08 04:32:00,47.3,35.0,29.71,ESE,114,0.0,0.0,62,0.00,,CLR,0.00,VWS V14.01,2013-04-08 08:32:00,
2013-04-08 04:42:00,47.3,35.0,29.71,ESE,117,0.0,0.0,62,0.00,,CLR,0.00,VWS V14.01,2013-04-08 08:42:00,
2013-04-08 04:52:00,47.1,34.8,29.70,East,90,0.0,0.0,62,0.00,,CLR,0.00,VWS V14.01,2013-04-08 08:52:00,
2013-04-08 04:57:00,47.0,34.7,29.70,ESE,121,0.0,0.0,62,0.00,,CLR,0.00,VWS V14.01,2013-04-08 08:57:00,
2013-04-08 05:02:00,47.0,35.1,29.69,ESE,104,0.0,0.0,63,0.00,,CLR,0.00,VWS V14.01,2013-04-08 09:02:00,
2013-04-08 05:07:00,47.1,34.8,29.69,ESE,110,0.0,0.0,62,0.00,,CLR,0.00,VWS V14.01,2013-04-08 09:07:00,
2013-04-08 05:12:00,47.1,35.2,29.69,ESE,120,0.0,0.0,63,0.00,,CLR,0.00,VWS V14.01,2013-04-08 09:12:00,
2013-04-08 05:17:00,47.1,35.2,29.69,ESE,103,0.0,0.0,63,0.00,,CLR,0.00,VWS V14.01,2013-04-08 09:17:00,
2013-04-08 05:22:00,47.1,35.2,29.69,ESE,102,0.0,0.0,63,0.00,,CLR,0.00,VWS V14.01,2013-04-08 09:22:00,
2013-04-08 05:27:00,47.1,35.2,29.69,ESE,114,0.0,0.0,63,0.00,,CLR,0.00,VWS V14.01,2013-04-08 09:27:00,
2013-04-08 05:37:00,47.3,35.8,29.68,ESE,114,0.0,0.0,64,0.00,,CLR,0.00,VWS V14.01,2013-04-08 09:37:00,
2013-04-08 05:42:00,47.3,35.8,29.68,ESE,104,0.0,0.0,64,0.00,,CLR,0.00,VWS V14.01,2013-04-08 09:42:00,
2013-04-08 05:47:00,47.3,35.8,29.68,ESE,113,0.0,0.0,64,0.00,,CLR,0.00,VWS V14.01,2013-04-08 09:47:00,
2013-04-08 05:52:00,47.4,36.2,29.68,ESE,114,0.0,0.0,65,0.00,,CLR,0.00,VWS V14.01,2013-04-08 09:52:00,
2013-04-08 05:57:00,47.4,36.2,29.68,ESE,123,0.0,0.0,65,0.00,,CLR,0.00,VWS V14.01,2013-04-08 09:57:00,
2013-04-08 06:07:00,47.4,37.0,29.67,ESE,112,0.0,0.0,67,0.00,,CLR,0.00,VWS V14.01,2013-04-08 10:07:00,
2013-04-08 06:12:00,47.1,37.5,29.67,ESE,106,0.0,0.0,69,0.00,,CLR,0.00,VWS V14.01,2013-04-08 10:12:00,
2013-04-08 06:22:00,47.0,37.7,29.67,ESE,102,0.0,0.0,70,0.00,,CLR,0.00,VWS V14.01,2013-04-08 10:22:00,
2013-04-08 06:37:00,46.5,38.3,29.67,ESE,104,0.0,0.0,73,0.00,,CLR,0.00,VWS V14.01,2013-04-08 10:37:00,
2013-04-08 06:42:00,46.2,38.4,29.67,SE,134,0.0,0.0,74,0.00,,CLR,0.00,VWS V14.01,2013-04-08 10:42:00,
2013-04-08 06:47:00,46.1,38.6,29.66,ESE,106,0.0,0.0,75,0.00,,CLR,0.00,VWS V14.01,2013-04-08 10:47:00,
2013-04-08 06:52:00,46.1,39.0,29.66,ESE,110,0.0,0.0,76,0.00,,CLR,0.00,VWS V14.01,2013-04-08 10:52:00,
2013-04-08 07:02:00,46.2,39.1,29.67,SE,124,0.0,0.0,76,0.00,,CLR,0.00,VWS V14.01,2013-04-08 11:02:00,
2013-04-08 07:07:00,46.4,39.6,29.67,ESE,117,0.0,0.0,77,0.00,,CLR,0.00,VWS V14.01,2013-04-08 11:07:00,
2013-04-08 07:12:00,46.5,39.4,29.67,ESE,107,0.0,0.0,76,0.00,,CLR,0.00,VWS V14.01,2013-04-08 11:12:00,
2013-04-08 07:17:00,46.4,39.6,29.68,ESE,117,0.0,0.0,77,0.01,,CLR,0.01,VWS V14.01,2013-04-08 11:17:00,
2013-04-08 07:22:00,46.2,39.7,29.68,ESE,104,0.0,0.0,78,0.01,,CLR,0.01,VWS V14.01,2013-04-08 11:22:00,
2013-04-08 07:27:00,46.2,40.1,29.68,ESE,113,0.0,0.0,79,0.01,,CLR,0.01,VWS V14.01,2013-04-08 11:27:00,
2013-04-08 07:32:00,46.2,40.4,29.67,ESE,114,0.0,0.0,80,0.01,,CLR,0.01,VWS V14.01,2013-04-08 11:32:00,
2013-04-08 07:42:00,46.1,40.6,29.67,ESE,114,0.0,0.0,81,0.02,,BKN048,0.02,VWS V14.01,2013-04-08 11:42:00,
2013-04-08 07:52:00,46.0,40.8,29.67,ESE,119,0.0,0.0,82,0.02,,BKN048,0.02,VWS V14.01,2013-04-08 11:52:00,
2013-04-08 08:02:00,46.0,41.1,29.67,ESE,107,0.0,0.0,83,0.02,,BKN048,0.02,VWS V14.01,2013-04-08 12:02:00,
2013-04-08 08:07:00,46.1,41.2,29.67,ESE,117,0.0,0.0,83,0.02,,BKN048,0.02,VWS V14.01,2013-04-08 12:07:00,
2013-04-08 08:12:00,46.2,41.3,29.67,SE,124,0.0,0.0,83,0.02,,BKN048,0.02,VWS V14.01,2013-04-08 12:12:00,
2013-04-08 08:22:00,46.7,42.1,29.66,ESE,113,0.0,0.0,84,0.01,,BKN048,0.02,VWS V14.01,2013-04-08 12:22:00,
2013-04-08 08:27:00,47.0,42.4,29.66,ESE,116,0.0,0.0,84,0.01,,BKN048,0.02,VWS V14.01,2013-04-08 12:27:00,
2013-04-08 08:32:00,47.1,42.5,29.65,ESE,112,0.0,0.0,84,0.01,,BKN048,0.02,VWS V14.01,2013-04-08 12:32:00,
2013-04-08 08:42:00,47.6,43.3,29.65,ESE,123,0.0,0.0,85,0.01,,BKN048,0.02,VWS V14.01,2013-04-08 12:42:00,
2013-04-08 08:47:00,48.0,43.7,29.64,ESE,110,0.0,0.0,85,0.00,,BKN048,0.02,VWS V14.01,2013-04-08 12:47:00,
2013-04-08 08:52:00,48.5,44.5,29.64,ESE,114,0.0,0.0,86,0.00,,BKN048,0.02,VWS V14.01,2013-04-08 12:52:00,
2013-04-08 08:57:00,48.8,44.5,29.64,SE,130,0.0,0.0,85,0.00,,BKN048,0.02,VWS V14.01,2013-04-08 12:57:00,
2013-04-08 09:02:00,49.2,44.9,29.62,SE,127,0.0,0.0,85,0.00,,BKN048,0.02,VWS V14.01,2013-04-08 13:02:00,
2013-04-08 09:12:00,49.8,45.5,29.62,SE,124,0.0,0.0,85,0.00,,BKN048,0.02,VWS V14.01,2013-04-08 13:12:00,
2013-04-08 09:17:00,50.7,46.4,29.61,SE,124,0.0,0.0,85,0.00,,BKN048,0.02,VWS V14.01,2013-04-08 13:17:00,
2013-04-08 09:22:00,51.0,46.7,29.61,ESE,110,0.0,0.0,85,0.00,,BKN048,0.02,VWS V14.01,2013-04-08 13:22:00,
2013-04-08 09:27:00,51.7,47.3,29.61,East,93,0.0,0.0,85,0.00,,BKN048,0.02,VWS V14.01,2013-04-08 13:27:00,
2013-04-08 09:32:00,52.3,47.6,29.60,ESE,123,0.0,0.0,84,0.00,,BKN048,0.02,VWS V14.01,2013-04-08 13:32:00,
2013-04-08 09:47:00,53.1,47.8,29.59,ESE,103,0.0,0.0,82,0.00,,-RA,0.02,VWS V14.01,2013-04-08 13:47:00,
2013-04-08 09:52:00,53.2,47.9,29.59,SSE,151,0.0,0.0,82,0.00,,-RA,0.02,VWS V14.01,2013-04-08 13:52:00,
2013-04-08 09:57:00,53.2,47.9,29.59,SSE,164,0.0,0.0,82,0.00,,-RA,0.02,VWS V14.01,2013-04-08 13:57:00,
2013-04-08 10:07:00,52.8,48.4,29.60,SE,133,0.0,0.0,85,0.06,,-RA,0.08,VWS V14.01,2013-04-08 14:07:00,
2013-04-08 10:12:00,52.6,48.5,29.60,SSE,155,0.0,0.0,86,0.08,,-RA,0.10,VWS V14.01,2013-04-08 14:12:00,
2013-04-08 10:22:00,52.8,49.3,29.59,SE,145,0.0,0.0,88,0.13,,-RA,0.15,VWS V14.01,2013-04-08 14:22:00,
2013-04-08 10:27:00,52.6,49.2,29.59,SE,143,0.0,0.0,88,0.15,,-RA,0.17,VWS V14.01,2013-04-08 14:27:00,
2013-04-08 10:32:00,52.8,49.7,29.59,SE,137,0.0,0.0,89,0.15,,-RA,0.17,VWS V14.01,2013-04-08 14:32:00,
2013-04-08 10:37:00,53.1,50.0,29.59,SSE,150,0.0,0.0,89,0.16,,-RA,0.18,VWS V14.01,2013-04-08 14:37:00,
2013-04-08 10:42:00,53.5,50.6,29.59,SE,124,0.0,0.0,90,0.17,, +RA,0.19,VWS V14.01,2013-04-08 14:42:00,
2013-04-08 10:47:00,53.9,51.0,29.59,SSE,147,0.0,0.0,90,0.17,, +RA,0.19,VWS V14.01,2013-04-08 14:47:00,
2013-04-08 10:52:00,54.4,51.8,29.59,SSE,150,0.0,0.0,91,0.17,, +RA,0.19,VWS V14.01,2013-04-08 14:52:00,
2013-04-08 10:57:00,54.8,52.2,29.59,SE,143,0.0,0.0,91,0.17,, +RA,0.19,VWS V14.01,2013-04-08 14:57:00,
2013-04-08 11:07:00,55.9,53.3,29.58,South,169,0.0,0.0,91,0.14,, +RA,0.19,VWS V14.01,2013-04-08 15:07:00,
2013-04-08 11:12:00,56.6,53.7,29.58,ESE,119,0.0,0.0,90,0.11,, +RA,0.19,VWS V14.01,2013-04-08 15:12:00,
2013-04-08 11:22:00,57.6,53.8,29.58,South,188,0.0,0.0,87,0.07,, +RA,0.19,VWS V14.01,2013-04-08 15:22:00,
2013-04-08 11:27:00,58.7,54.2,29.58,SE,141,0.0,0.0,85,0.04,, +RA,0.19,VWS V14.01,2013-04-08 15:27:00,
2013-04-08 11:32:00,59.9,54.1,29.57,ESE,120,0.0,0.0,81,0.02,, +RA,0.19,VWS V14.01,2013-04-08 15:32:00,
2013-04-08 11:37:00,61.2,53.6,29.57,SSE,167,0.0,0.0,76,0.02,, +RA,0.19,VWS V14.01,2013-04-08 15:37:00,
2013-04-08 11:47:00,62.1,53.0,29.57,SSE,167,0.0,0.0,72,0.00,,,0.19,VWS V14.01,2013-04-08 15:47:00,
2013-04-08 11:57:00,63.4,53.8,29.57,SSW,209,0.0,0.0,71,0.00,,,0.19,VWS V14.01,2013-04-08 15:57:00,
2013-04-08 12:02:00,63.9,53.5,29.58,SSW,195,0.0,0.0,69,0.00,,,0.19,VWS V14.01,2013-04-08 16:02:00,
2013-04-08 12:07:00,64.2,53.8,29.58,SSW,212,0.0,0.0,69,0.00,,,0.19,VWS V14.01,2013-04-08 16:07:00,
2013-04-08 12:12:00,64.5,53.3,29.58,SSW,192,0.0,0.0,67,0.00,,,0.19,VWS V14.01,2013-04-08 16:12:00,
2013-04-08 12:17:00,64.3,53.1,29.57,SSW,196,0.0,0.0,67,0.00,,,0.19,VWS V14.01,2013-04-08 16:17:00,
2013-04-08 12:22:00,64.2,53.0,29.57,SW,224,0.0,0.0,67,0.00,,,0.19,VWS V14.01,2013-04-08 16:22:00,
2013-04-08 12:32:00,63.7,53.3,29.57,SSW,206,0.0,0.0,69,0.00,,,0.19,VWS V14.01,2013-04-08 16:32:00,
2013-04-08 12:37:00,64.0,53.2,29.57,SW,219,0.0,0.0,68,0.00,,,0.19,VWS V14.01,2013-04-08 16:37:00,
2013-04-08 12:42:00,64.2,53.4,29.57,SSW,195,0.0,0.0,68,0.00,,OVC028,0.19,VWS V14.01,2013-04-08 16:42:00,
2013-04-08 12:47:00,63.9,53.5,29.57,SSW,206,0.0,0.0,69,0.00,,OVC028,0.19,VWS V14.01,2013-04-08 16:47:00,
2013-04-08 12:57:00,64.2,53.4,29.57,SW,216,0.0,0.0,68,0.00,,OVC028,0.19,VWS V14.01,2013-04-08 16:57:00,
2013-04-08 13:02:00,64.2,53.0,29.57,SW,226,0.0,0.0,67,0.00,,OVC028,0.19,VWS V14.01,2013-04-08 17:02:00,
2013-04-08 13:12:00,64.7,53.1,29.57,SSW,213,0.0,0.0,66,0.00,,OVC028,0.19,VWS V14.01,2013-04-08 17:12:00,
2013-04-08 13:22:00,65.2,53.2,29.57,SW,226,0.0,0.0,65,0.00,,OVC028,0.19,VWS V14.01,2013-04-08 17:22:00,
2013-04-08 13:27:00,65.5,53.4,29.57,SW,222,0.0,0.0,65,0.00,,OVC028,0.19,VWS V14.01,2013-04-08 17:27:00,
2013-04-08 13:37:00,66.0,53.5,29.57,SSW,198,0.0,0.0,64,0.00,,OVC028,0.19,VWS V14.01,2013-04-08 17:37:00,
2013-04-08 13:42:00,66.0,53.9,29.57,West,268,0.0,0.0,65,0.00,,BKN041,0.19,VWS V14.01,2013-04-08 17:42:00,
2013-04-08 13:52:00,66.6,54.5,29.57,SW,219,0.0,0.0,65,0.00,,BKN041,0.19,VWS V14.01,2013-04-08 17:52:00,
2013-04-08 13:57:00,67.1,53.7,29.57,SW,222,0.0,0.0,62,0.00,,BKN041,0.19,VWS V14.01,2013-04-08 17:57:00,
2013-04-08 14:07:00,67.9,54.4,29.57,SW,223,0.0,0.0,62,0.00,,BKN041,0.19,VWS V14.01,2013-04-08 18:07:00,
2013-04-08 14:12:00,68.3,53.9,29.57,South,184,0.0,0.0,60,0.00,,BKN041,0.19,VWS V14.01,2013-04-08 18:12:00,
2013-04-08 14:17:00,68.8,53.9,29.56,West,264,0.0,0.0,59,0.00,,BKN041,0.19,VWS V14.01,2013-04-08 18:17:00,
2013-04-08 14:27:00,68.3,53.0,29.56,SW,220,0.0,0.0,58,0.00,,BKN041,0.19,VWS V14.01,2013-04-08 18:27:00,
2013-04-08 14:32:00,68.3,53.4,29.57,SSW,209,0.0,0.0,59,0.00,,BKN041,0.19,VWS V14.01,2013-04-08 18:32:00,
2013-04-08 14:37:00,68.4,53.1,29.57,WSW,237,0.0,0.0,58,0.00,,BKN041,0.19,VWS V14.01,2013-04-08 18:37:00,
2013-04-08 14:47:00,69.4,53.5,29.57,SSW,209,0.0,0.0,57,0.00,,OVC047,0.19,VWS V14.01,2013-04-08 18:47:00,
2013-04-08 14:52:00,69.6,53.2,29.57,South,185,0.0,0.0,56,0.00,,OVC047,0.19,VWS V14.01,2013-04-08 18:52:00,
2013-04-08 14:57:00,70.1,53.2,29.57,SW,226,0.0,0.0,55,0.00,,OVC047,0.19,VWS V14.01,2013-04-08 18:57:00,
2013-04-08 15:02:00,70.1,53.2,29.58,West,263,0.0,0.0,55,0.00,,OVC047,0.19,VWS V14.01,2013-04-08 19:02:00,
2013-04-08 15:12:00,69.8,52.9,29.58,SSE,157,0.0,0.0,55,0.00,,OVC047,0.19,VWS V14.01,2013-04-08 19:12:00,
2013-04-08 15:17:00,69.9,53.0,29.58,SW,227,0.0,0.0,55,0.00,,OVC047,0.19,VWS V14.01,2013-04-08 19:17:00,
2013-04-08 15:22:00,69.9,53.5,29.58,SSW,213,0.0,0.0,56,0.00,,OVC047,0.19,VWS V14.01,2013-04-08 19:22:00,
2013-04-08 15:27:00,70.1,53.2,29.58,SW,215,0.0,0.0,55,0.00,,OVC047,0.19,VWS V14.01,2013-04-08 19:27:00,
2013-04-08 15:32:00,69.4,53.0,29.58,West,268,0.0,0.0,56,0.00,,OVC047,0.19,VWS V14.01,2013-04-08 19:32:00,
2013-04-08 15:37:00,69.4,53.5,29.58,SSW,212,0.0,0.0,57,0.00,,OVC047,0.19,VWS V14.01,2013-04-08 19:37:00,
2013-04-08 15:42:00,69.9,54.0,29.58,SSW,208,0.0,0.0,57,0.00,,OVC060,0.19,VWS V14.01,2013-04-08 19:42:00,
2013-04-08 15:52:00,70.3,53.9,29.58,SW,236,0.0,0.0,56,0.00,,OVC060,0.19,VWS V14.01,2013-04-08 19:52:00,
2013-04-08 15:57:00,70.9,49.7,29.58,SW,224,0.0,0.0,47,0.00,,OVC060,0.19,VWS V14.01,2013-04-08 19:57:00,
2013-04-08 16:07:00,72.0,49.5,29.58,West,277,0.0,0.0,45,0.00,,OVC060,0.19,VWS V14.01,2013-04-08 20:07:00,
2013-04-08 16:12:00,72.5,48.1,29.58,WSW,244,0.0,0.0,42,0.00,,OVC060,0.19,VWS V14.01,2013-04-08 20:12:00,
2013-04-08 16:17:00,71.6,49.2,29.58,WSW,240,0.0,0.0,45,0.00,,OVC060,0.19,VWS V14.01,2013-04-08 20:17:00,
2013-04-08 16:22:00,72.0,48.9,29.58,West,261,0.0,0.0,44,0.00,,OVC060,0.19,VWS V14.01,2013-04-08 20:22:00,
2013-04-08 16:32:00,72.7,48.3,29.59,NW,304,0.0,0.0,42,0.00,,OVC060,0.19,VWS V14.01,2013-04-08 20:32:00,
2013-04-08 16:37:00,72.5,47.5,29.59,WSW,250,0.0,0.0,41,0.00,,OVC060,0.19,VWS V14.01,2013-04-08 20:37:00,
2013-04-08 16:47:00,72.5,48.1,29.59,WSW,258,0.0,0.0,42,0.00,,BKN047,0.19,VWS V14.01,2013-04-08 20:47:00,
2013-04-08 16:52:00,72.0,47.0,29.59,West,261,0.0,0.0,41,0.00,,BKN047,0.19,VWS V14.01,2013-04-08 20:52:00,
2013-04-08 17:02:00,72.5,48.1,29.59,WSW,237,0.0,0.0,42,0.00,,BKN047,0.19,VWS V14.01,2013-04-08 21:02:00,
2013-04-08 17:07:00,72.7,47.7,29.59,West,263,0.0,0.0,41,0.00,,BKN047,0.19,VWS V14.01,2013-04-08 21:07:00,
2013-04-08 17:12:00,72.1,47.1,29.59,West,260,0.0,0.0,41,0.00,,BKN047,0.19,VWS V14.01,2013-04-08 21:12:00,
2013-04-08 17:17:00,72.0,48.3,29.59,West,263,0.0,0.0,43,0.00,,BKN047,0.19,VWS V14.01,2013-04-08 21:17:00,
2013-04-08 17:22:00,72.8,48.4,29.59,WSW,244,0.0,0.0,42,0.00,,BKN047,0.19,VWS V14.01,2013-04-08 21:22:00,
2013-04-08 17:32:00,72.1,48.4,29.61,WSW,256,0.0,0.0,43,0.00,,BKN047,0.19,VWS V14.01,2013-04-08 21:32:00,
2013-04-08 17:42:00,72.7,47.0,29.61,West,281,0.0,0.0,40,0.00,,BKN048,0.19,VWS V14.01,2013-04-08 21:42:00,
2013-04-08 17:47:00,72.8,47.1,29.61,West,267,0.0,0.0,40,0.00,,BKN048,0.19,VWS V14.01,2013-04-08 21:47:00,
2013-04-08 17:57:00,72.7,48.3,29.61,West,263,0.0,0.0,42,0.00,,BKN048,0.19,VWS V14.01,2013-04-08 21:57:00,
2013-04-08 18:02:00,72.3,48.0,29.61,West,278,0.0,0.0,42,0.00,,BKN048,0.19,VWS V14.01,2013-04-08 22:02:00,
2013-04-08 18:12:00,72.5,47.5,29.61,West,268,0.0,0.0,41,0.00,,BKN048,0.19,VWS V14.01,2013-04-08 22:12:00,
2013-04-08 18:17:00,72.3,47.3,29.62,West,268,0.0,0.0,41,0.00,,BKN048,0.19,VWS V14.01,2013-04-08 22:17:00,
2013-04-08 18:22:00,72.5,47.5,29.62,SSW,195,0.0,0.0,41,0.00,,BKN048,0.19,VWS V14.01,2013-04-08 22:22:00,
2013-04-08 18:27:00,72.5,47.5,29.62,SW,220,0.0,0.0,41,0.00,,BKN048,0.19,VWS V14.01,2013-04-08 22:27:00,
2013-04-08 18:32:00,72.8,47.8,29.63,West,263,0.0,0.0,41,0.00,,BKN048,0.19,VWS V14.01,2013-04-08 22:32:00,
2013-04-08 18:42:00,72.0,47.0,29.63,WNW,285,0.0,0.0,41,0.00,,CLR,0.19,VWS V14.01,2013-04-08 22:42:00,
2013-04-08 18:47:00,71.8,47.5,29.64,West,264,0.0,0.0,42,0.00,,CLR,0.19,VWS V14.01,2013-04-08 22:47:00,
2013-04-08 18:57:00,72.0,47.7,29.64,West,260,0.0,0.0,42,0.00,,CLR,0.19,VWS V14.01,2013-04-08 22:57:00,
2013-04-08 19:02:00,71.6,47.3,29.64,West,265,0.0,0.0,42,0.00,,CLR,0.19,VWS V14.01,2013-04-08 23:02:00,
2013-04-08 19:07:00,71.5,47.2,29.64,West,275,0.0,0.0,42,0.00,,CLR,0.19,VWS V14.01,2013-04-08 23:07:00,
2013-04-08 19:12:00,71.1,47.5,29.64,West,278,0.0,0.0,43,0.00,,CLR,0.19,VWS V14.01,2013-04-08 23:12:00,
2013-04-08 19:22:00,70.6,47.7,29.65,West,274,0.0,0.0,44,0.00,,CLR,0.19,VWS V14.01,2013-04-08 23:22:00,
2013-04-08 19:27:00,70.4,47.5,29.65,WNW,299,0.0,0.0,44,0.00,,CLR,0.19,VWS V14.01,2013-04-08 23:27:00,
2013-04-08 19:32:00,69.6,49.1,29.66,NNE,13,0.0,0.0,48,0.00,,CLR,0.19,VWS V14.01,2013-04-08 23:32:00,
2013-04-08 19:37:00,66.1,49.5,29.66,NNE,21,0.0,0.0,55,0.00,,CLR,0.19,VWS V14.01,2013-04-08 23:37:00,
2013-04-08 19:42:00,64.7,49.6,29.66,NNE,17,0.0,0.0,58,0.00,,CLR,0.19,VWS V14.01,2013-04-08 23:42:00,
2013-04-08 19:52:00,62.9,49.3,29.67,North,3,0.0,0.0,61,0.00,,CLR,0.19,VWS V14.01,2013-04-08 23:52:00,
2013-04-08 20:02:00,61.6,48.5,29.68,North,359,0.0,0.0,62,0.00,,CLR,0.19,VWS V14.01,2013-04-09 00:02:00,
2013-04-08 20:12:00,60.1,48.3,29.68,NNE,27,0.0,0.0,65,0.00,,CLR,0.19,VWS V14.01,2013-04-09 00:12:00,
2013-04-08 20:22:00,58.7,47.4,29.69,NE,48,0.0,0.0,66,0.00,,CLR,0.19,VWS V14.01,2013-04-09 00:22:00,
2013-04-08 20:27:00,57.8,46.9,29.69,NE,35,0.0,0.0,67,0.00,,CLR,0.19,VWS V14.01,2013-04-09 00:27:00,
2013-04-08 20:32:00,57.3,46.8,29.71,NNE,28,0.0,0.0,68,0.00,,CLR,0.19,VWS V14.01,2013-04-09 00:32:00,
2013-04-08 20:37:00,56.9,46.8,29.71,NNE,25,0.0,0.0,69,0.00,,CLR,0.19,VWS V14.01,2013-04-09 00:37:00,
2013-04-08 20:47:00,56.2,46.2,29.71,NNE,31,0.0,0.0,69,0.00,,CLR,0.19,VWS V14.01,2013-04-09 00:47:00,
2013-04-08 20:52:00,55.9,46.3,29.71,NNE,32,0.0,0.0,70,0.00,,CLR,0.19,VWS V14.01,2013-04-09 00:52:00,
2013-04-08 21:02:00,55.0,46.2,29.72,NE,40,0.0,0.0,72,0.00,,CLR,0.19,VWS V14.01,2013-04-09 01:02:00,
2013-04-08 21:07:00,54.8,46.0,29.72,NE,42,0.0,0.0,72,0.00,,CLR,0.19,VWS V14.01,2013-04-09 01:07:00,
2013-04-08 21:17:00,54.7,45.9,29.73,NE,52,0.0,0.0,72,0.00,,CLR,0.19,VWS V14.01,2013-04-09 01:17:00,
2013-04-08 21:22:00,54.5,45.3,29.73,NE,52,0.0,0.0,71,0.00,,CLR,0.19,VWS V14.01,2013-04-09 01:22:00,
2013-04-08 21:32:00,54.4,45.2,29.74,NE,55,0.0,0.0,71,0.00,,CLR,0.19,VWS V14.01,2013-04-09 01:32:00,
2013-04-08 21:42:00,53.9,45.1,29.74,NE,55,0.0,0.0,72,0.00,,CLR,0.19,VWS V14.01,2013-04-09 01:42:00,
2013-04-08 21:47:00,53.6,44.8,29.75,NE,55,0.0,0.0,72,0.00,,CLR,0.19,VWS V14.01,2013-04-09 01:47:00,
2013-04-08 21:52:00,53.8,45.0,29.75,NE,55,0.0,0.0,72,0.00,,CLR,0.19,VWS V14.01,2013-04-09 01:52:00,
2013-04-08 21:57:00,53.9,44.7,29.75,NE,55,0.0,0.0,71,0.00,,CLR,0.19,VWS V14.01,2013-04-09 01:57:00,
2013-04-08 22:02:00,53.9,44.7,29.77,NE,55,0.0,0.0,71,0.00,,CLR,0.19,VWS V14.01,2013-04-09 02:02:00,
2013-04-08 22:12:00,53.8,45.0,29.77,NE,55,0.0,0.0,72,0.00,,CLR,0.19,VWS V14.01,2013-04-09 02:12:00,
2013-04-08 22:22:00,53.6,44.8,29.77,NE,56,0.0,0.0,72,0.00,,CLR,0.19,VWS V14.01,2013-04-09 02:22:00,
2013-04-08 22:27:00,53.6,44.8,29.77,ENE,58,0.0,0.0,72,0.00,,CLR,0.19,VWS V14.01,2013-04-09 02:27:00,
2013-04-08 22:32:00,53.5,44.7,29.77,ENE,58,0.0,0.0,72,0.00,,CLR,0.19,VWS V14.01,2013-04-09 02:32:00,
2013-04-08 22:42:00,53.3,44.5,29.77,ENE,58,0.0,0.0,72,0.00,,CLR,0.19,VWS V14.01,2013-04-09 02:42:00,
2013-04-08 22:47:00,53.1,44.3,29.78,ENE,58,0.0,0.0,72,0.00,,CLR,0.19,VWS V14.01,2013-04-09 02:47:00,
2013-04-08 22:57:00,52.8,44.4,29.78,ENE,58,0.0,0.0,73,0.00,,CLR,0.19,VWS V14.01,2013-04-09 02:57:00,
2013-04-08 23:07:00,52.8,44.8,29.78,ENE,58,0.0,0.0,74,0.00,,CLR,0.19,VWS V14.01,2013-04-09 03:07:00,
2013-04-08 23:12:00,52.6,44.9,29.78,ENE,58,0.0,0.0,75,0.00,,CLR,0.19,VWS V14.01,2013-04-09 03:12:00,
2013-04-08 23:17:00,52.2,44.5,29.78,ENE,58,0.0,0.0,75,0.00,,CLR,0.19,VWS V14.01,2013-04-09 03:17:00,
2013-04-08 23:27:00,51.9,44.2,29.78,ENE,58,0.0,0.0,75,0.00,,CLR,0.19,VWS V14.01,2013-04-09 03:27:00,
2013-04-08 23:32:00,52.0,44.3,29.79,ENE,58,0.0,0.0,75,0.00,,CLR,0.19,VWS V14.01,2013-04-09 03:32:00,
2013-04-08 23:42:00,51.7,44.4,29.79,ENE,58,0.0,0.0,76,0.00,,CLR,0.19,VWS V14.01,2013-04-09 03:42:00,
2013-04-08 23:47:00,51.6,44.3,29.79,ENE,58,0.0,0.0,76,0.00,,CLR,0.19,VWS V14.01,2013-04-09 03:47:00,
2013-04-08 23:57:00,51.9,44.6,29.79,ENE,59,0.0,0.0,76,0.00,,CLR,0.19,VWS V14.01,2013-04-09 03:57:00,